Time;durP1;ratioP1;P1;durP2;ratioP2;P2;SDS_P1;SDS_P2;PMS_P1;PMS_P2;Temp;Humidity;BMP_temperature;BMP_pressure;BME280_temperature;BME280_humidity;BME280_pressure;Samples;Min_cycle;Max_cycle;Signal;HPM_P1;HPM_P2
2023/07/03 00:01:17;;;;;;;14.15;4.00;;;;;;;17.04;100.00;100785.94;5002277;28;20042;-61
2023/07/03 00:03:45;;;;;;;16.58;4.22;;;;;;;17.03;100.00;100786.09;5003252;28;20045;-61
2023/07/03 00:06:15;;;;;;;14.15;3.97;;;;;;;16.99;100.00;100780.22;4996277;28;20046;-61
2023/07/03 00:08:43;;;;;;;17.95;4.47;;;;;;;16.92;100.00;100781.78;5001756;28;20063;-61
2023/07/03 00:11:11;;;;;;;15.77;4.32;;;;;;;16.98;100.00;100775.88;5003873;28;20038;-61
2023/07/03 00:13:39;;;;;;;14.45;3.75;;;;;;;16.97;100.00;100770.72;5014397;28;20922;-61
2023/07/03 00:16:08;;;;;;;14.18;4.15;;;;;;;16.90;100.00;100775.75;5010209;28;20049;-61
2023/07/03 00:18:36;;;;;;;13.15;3.13;;;;;;;16.88;100.00;100785.66;4999137;28;20045;-61
2023/07/03 00:21:07;;;;;;;13.27;4.10;;;;;;;16.95;100.00;100775.34;4998272;28;20050;-61
2023/07/03 00:23:37;;;;;;;15.32;3.80;;;;;;;16.87;100.00;100774.19;4999880;28;20053;-61
2023/07/03 00:26:05;;;;;;;18.95;4.50;;;;;;;16.86;100.00;100774.34;5002289;28;20050;-61
2023/07/03 00:28:33;;;;;;;18.48;4.18;;;;;;;16.85;100.00;100772.66;5002461;28;20505;-61
2023/07/03 00:31:01;;;;;;;18.13;4.43;;;;;;;16.82;100.00;100767.63;5003286;28;20485;-61
2023/07/03 00:33:29;;;;;;;13.48;3.80;;;;;;;16.71;100.00;100772.13;5010366;28;20441;-61
2023/07/03 00:35:57;;;;;;;16.55;3.83;;;;;;;16.75;100.00;100762.06;4999158;28;20049;-62
2023/07/03 00:38:25;;;;;;;17.35;4.28;;;;;;;16.71;100.00;100768.63;5000642;28;20091;-61
2023/07/03 00:40:57;;;;;;;19.17;4.07;;;;;;;16.71;100.00;100769.47;4999810;28;20038;-61
2023/07/03 00:43:27;;;;;;;17.17;4.00;;;;;;;16.71;100.00;100772.13;5007409;28;20070;-61
2023/07/03 00:45:55;;;;;;;15.25;3.67;;;;;;;16.72;100.00;100772.97;4999558;28;20512;-61
2023/07/03 00:48:24;;;;;;;15.93;3.83;;;;;;;16.72;100.00;100773.78;5001205;28;20501;-60
2023/07/03 00:50:52;;;;;;;13.05;3.70;;;;;;;16.69;100.00;100776.75;4997580;28;20670;-60
2023/07/03 00:53:20;;;;;;;17.02;3.63;;;;;;;16.58;100.00;100768.94;4999198;28;20029;-60
2023/07/03 00:55:48;;;;;;;16.70;3.67;;;;;;;16.61;100.00;100768.66;4995929;28;20409;-61
2023/07/03 00:58:18;;;;;;;17.92;4.10;;;;;;;16.51;100.00;100760.69;4989418;28;20565;-60
2023/07/03 01:00:55;;;;;;;15.98;3.72;;;;;;;16.53;100.00;100760.53;5018821;28;20044;-61
2023/07/03 01:03:32;;;;;;;14.10;3.55;;;;;;;16.53;100.00;100758.72;5031141;28;20049;-63
2023/07/03 01:06:05;;;;;;;18.58;3.63;;;;;;;16.54;100.00;100759.56;5030916;28;20400;-63
2023/07/03 01:08:34;;;;;;;13.80;3.90;;;;;;;16.53;100.00;100757.91;5028038;28;20053;-60
2023/07/03 01:11:02;;;;;;;14.95;3.45;;;;;;;16.54;100.00;100764.88;5029151;28;20485;-61
2023/07/03 01:13:34;;;;;;;18.27;3.95;;;;;;;16.53;100.00;100760.53;5029061;28;20457;-61
2023/07/03 01:16:05;;;;;;;17.60;4.22;;;;;;;16.54;100.00;100767.53;5020531;28;20608;-60
2023/07/03 01:18:34;;;;;;;17.08;3.95;;;;;;;16.49;100.00;100757.31;5022121;28;20493;-61
2023/07/03 01:21:06;;;;;;;15.10;3.45;;;;;;;16.50;100.00;100760.84;5025684;28;20076;-61
2023/07/03 01:23:41;;;;;;;12.73;3.50;;;;;;;16.48;100.00;100757.47;5020501;28;20104;-62
2023/07/03 01:26:14;;;;;;;15.07;3.95;;;;;;;16.53;100.00;100752.59;5027081;28;20054;-62
2023/07/03 01:28:45;;;;;;;16.38;3.90;;;;;;;16.41;100.00;100759.03;5011739;28;20051;-60
2023/07/03 01:31:16;;;;;;;13.60;3.38;;;;;;;16.48;100.00;100760.13;5007995;28;20049;-60
2023/07/03 01:33:45;;;;;;;14.00;3.55;;;;;;;16.48;100.00;100752.16;5003809;28;20042;-60
2023/07/03 01:36:15;;;;;;;13.77;3.63;;;;;;;16.39;100.00;100754.69;5005307;28;20057;-60
2023/07/03 01:38:44;;;;;;;13.98;4.00;;;;;;;16.19;100.00;100753.00;5008535;28;20061;-61
2023/07/03 01:41:17;;;;;;;14.95;3.60;;;;;;;16.32;100.00;100747.41;5008641;28;20045;-61
2023/07/03 01:43:48;;;;;;;16.85;4.20;;;;;;;16.27;100.00;100747.00;5012509;28;20093;-61
2023/07/03 01:46:17;;;;;;;16.35;4.25;;;;;;;16.11;100.00;100747.56;5014199;28;20053;-61
2023/07/03 01:48:45;;;;;;;15.18;3.85;;;;;;;16.14;100.00;100758.75;5017161;28;20060;-61
2023/07/03 01:51:19;;;;;;;14.20;3.95;;;;;;;16.15;100.00;100748.94;5007485;28;20069;-61
2023/07/03 01:53:55;;;;;;;14.93;3.55;;;;;;;16.11;100.00;100736.94;5003669;28;20120;-61
2023/07/03 01:56:30;;;;;;;14.30;4.15;;;;;;;16.13;100.00;100740.28;5011475;28;20037;-61
2023/07/03 01:59:07;;;;;;;14.27;3.65;;;;;;;16.04;100.00;100748.09;5001280;28;20132;-61
2023/07/03 02:01:43;;;;;;;14.18;3.83;;;;;;;15.97;100.00;100744.31;4992642;28;20079;-61
2023/07/03 02:04:18;;;;;;;18.42;4.72;;;;;;;15.93;100.00;100745.56;5000043;28;20050;-61
2023/07/03 02:06:52;;;;;;;12.93;3.75;;;;;;;15.97;100.00;100736.38;5013016;28;20054;-60
2023/07/03 02:09:22;;;;;;;18.92;4.30;;;;;;;16.02;100.00;100731.50;5014579;28;20054;-61
2023/07/03 02:11:52;;;;;;;17.33;4.03;;;;;;;15.90;100.00;100740.56;5014379;28;20061;-60
2023/07/03 02:14:24;;;;;;;16.90;3.95;;;;;;;15.90;100.00;100735.25;5014164;28;20041;-61
2023/07/03 02:16:52;;;;;;;15.75;4.03;;;;;;;15.90;100.00;100732.59;5024384;28;20053;-61
2023/07/03 02:19:28;;;;;;;14.43;3.85;;;;;;;15.88;100.00;100729.22;5014694;28;20057;-59
2023/07/03 02:21:56;;;;;;;15.60;4.35;;;;;;;15.85;100.00;100737.47;5028373;28;20112;-60
2023/07/03 02:24:25;;;;;;;17.55;4.45;;;;;;;15.82;100.00;100735.94;5017528;28;20037;-59
2023/07/03 02:26:54;;;;;;;14.75;4.35;;;;;;;15.78;100.00;100733.66;5021945;28;20050;-59
2023/07/03 02:29:22;;;;;;;16.85;4.20;;;;;;;15.80;100.00;100737.88;5022673;28;20054;-59
2023/07/03 02:31:51;;;;;;;14.80;3.65;;;;;;;15.74;100.00;100734.91;5022343;28;20049;-59
2023/07/03 02:34:20;;;;;;;14.63;4.30;;;;;;;15.77;100.00;100724.03;5027909;28;20489;-59
2023/07/03 02:36:49;;;;;;;15.80;4.28;;;;;;;15.73;100.00;100728.75;5027027;28;20037;-59
2023/07/03 02:39:17;;;;;;;17.02;5.05;;;;;;;15.69;100.00;100722.03;5016742;28;20038;-58
2023/07/03 02:41:45;;;;;;;18.90;4.55;;;;;;;15.71;100.00;100720.94;5017907;28;20068;-58
2023/07/03 02:44:18;;;;;;;15.52;4.25;;;;;;;15.62;100.00;100719.09;5010248;28;20161;-59
2023/07/03 02:46:47;;;;;;;17.48;4.28;;;;;;;15.72;100.00;100712.03;5024254;28;20105;-59
2023/07/03 02:49:15;;;;;;;16.92;3.92;;;;;;;15.73;100.00;100715.50;5013650;28;20528;-59
2023/07/03 02:51:43;;;;;;;16.40;4.72;;;;;;;15.74;100.00;100724.31;5018388;28;20056;-58
2023/07/03 02:54:11;;;;;;;16.08;4.03;;;;;;;15.64;100.00;100719.00;5025738;28;20488;-58
2023/07/03 02:56:39;;;;;;;18.75;4.43;;;;;;;15.63;100.00;100712.00;5030424;28;20045;-59
2023/07/03 02:59:08;;;;;;;18.17;4.60;;;;;;;15.58;100.00;100716.88;5024159;28;20052;-60
2023/07/03 03:01:37;;;;;;;16.33;4.07;;;;;;;15.59;100.00;100719.38;5016723;28;20065;-62
2023/07/03 03:04:05;;;;;;;17.27;4.55;;;;;;;15.55;100.00;100713.50;5020187;28;20062;-61
2023/07/03 03:06:34;;;;;;;22.48;5.00;;;;;;;15.61;100.00;100720.09;5019633;28;20049;-60
2023/07/03 03:09:02;;;;;;;17.67;4.25;;;;;;;15.59;100.00;100722.03;5023179;28;20048;-60
2023/07/03 03:11:30;;;;;;;17.70;4.18;;;;;;;15.61;100.00;100720.09;5018582;28;20125;-60
2023/07/03 03:13:58;;;;;;;15.70;4.28;;;;;;;15.55;100.00;100720.63;5011212;28;20046;-61
2023/07/03 03:16:26;;;;;;;25.75;5.00;;;;;;;15.59;100.00;100715.91;5020721;28;20072;-61
2023/07/03 03:18:56;;;;;;;22.75;5.00;;;;;;;15.59;100.00;100710.59;5025417;28;20053;-61
2023/07/03 03:21:26;;;;;;;19.50;4.00;;;;;;;15.62;100.00;100716.44;5021005;28;20042;-62
2023/07/03 03:23:55;;;;;;;19.85;4.78;;;;;;;15.63;100.00;100712.81;5011068;28;20050;-60
2023/07/03 03:26:23;;;;;;;22.02;5.55;;;;;;;15.62;100.00;100720.91;5020548;28;20049;-61
2023/07/03 03:28:51;;;;;;;20.38;4.72;;;;;;;15.55;100.00;100715.31;5019144;28;20112;-60
2023/07/03 03:31:19;;;;;;;21.40;4.57;;;;;;;15.51;100.00;100722.69;5013778;28;20056;-62
2023/07/03 03:33:48;;;;;;;22.98;5.30;;;;;;;15.57;100.00;100729.28;5022465;28;20044;-62
2023/07/03 03:36:17;;;;;;;18.48;4.93;;;;;;;15.59;100.00;100719.38;5021027;28;20041;-61
2023/07/03 03:38:45;;;;;;;20.38;4.82;;;;;;;15.60;100.00;100720.19;5020797;28;20408;-62
2023/07/03 03:41:16;;;;;;;20.27;4.88;;;;;;;15.59;100.00;100721.19;5014331;28;20128;-61
2023/07/03 03:43:46;;;;;;;18.35;4.82;;;;;;;15.48;100.00;100722.97;5014760;28;20049;-60
2023/07/03 03:46:17;;;;;;;23.63;4.88;;;;;;;15.55;100.00;100717.97;5021430;28;20057;-59
2023/07/03 03:48:46;;;;;;;22.98;4.95;;;;;;;15.55;100.00;100717.97;5025306;28;20053;-59
2023/07/03 03:51:14;;;;;;;22.63;5.55;;;;;;;15.52;100.00;100716.44;5014004;28;20080;-59
2023/07/03 03:53:44;;;;;;;21.85;5.28;;;;;;;15.53;100.00;100714.63;5020717;28;20112;-59
2023/07/03 03:56:12;;;;;;;20.35;4.90;;;;;;;15.52;100.00;100719.06;4999654;28;20056;-60
2023/07/03 03:58:40;;;;;;;21.17;5.10;;;;;;;15.49;100.00;100724.66;5010655;28;20049;-60
2023/07/03 04:01:08;;;;;;;17.65;5.03;;;;;;;15.44;100.00;100724.22;5000142;28;20091;-61
2023/07/03 04:03:36;;;;;;;19.40;5.40;;;;;;;15.48;100.00;100725.63;5008854;28;20104;-61
2023/07/03 04:06:05;;;;;;;24.95;5.93;;;;;;;15.50;100.00;100729.00;5006560;28;20070;-60
2023/07/03 04:08:33;;;;;;;26.27;6.13;;;;;;;15.50;100.00;100726.34;4999158;28;20050;-60
2023/07/03 04:11:03;;;;;;;26.55;5.80;;;;;;;15.52;100.00;100734.16;4999500;28;20061;-60
2023/07/03 04:13:31;;;;;;;24.95;5.88;;;;;;;15.44;100.00;100734.00;4998015;28;20034;-60
2023/07/03 04:16:02;;;;;;;21.90;4.97;;;;;;;15.44;100.00;100728.69;4995909;28;20061;-60
2023/07/03 04:18:32;;;;;;;22.38;5.68;;;;;;;15.40;100.00;100727.28;5008050;28;20065;-61
2023/07/03 04:21:00;;;;;;;19.58;4.85;;;;;;;15.42;100.00;100723.53;5010087;28;20049;-60
2023/07/03 04:23:29;;;;;;;22.45;5.50;;;;;;;15.41;100.00;100724.50;5001790;28;20101;-60
2023/07/03 04:25:58;;;;;;;27.00;5.88;;;;;;;15.44;100.00;100731.34;5000882;28;20050;-61
2023/07/03 04:28:27;;;;;;;27.38;5.90;;;;;;;15.49;100.00;100734.44;5000113;28;20081;-61
2023/07/03 04:30:55;;;;;;;20.77;5.38;;;;;;;15.51;100.00;100735.13;5003023;28;20042;-59
2023/07/03 04:33:24;;;;;;;23.17;5.10;;;;;;;15.51;100.00;100743.06;5035938;28;20137;-60
2023/07/03 04:35:52;;;;;;;24.17;5.50;;;;;;;15.49;100.00;100740.56;5003397;28;21840;-61
2023/07/03 04:38:23;;;;;;;23.67;5.65;;;;;;;15.50;100.00;100742.25;4997401;28;20096;-59
2023/07/03 04:40:53;;;;;;;25.65;5.50;;;;;;;15.48;100.00;100735.41;4998632;28;20065;-59
2023/07/03 04:43:22;;;;;;;21.48;5.53;;;;;;;15.47;100.00;100744.31;5021269;28;20805;-61
2023/07/03 04:45:55;;;;;;;24.10;6.38;;;;;;;15.47;100.00;100745.13;5011056;28;20121;-60
2023/07/03 04:48:26;;;;;;;21.13;5.03;;;;;;;15.42;100.00;100755.31;5018138;28;20056;-61
2023/07/03 04:50:54;;;;;;;24.73;5.82;;;;;;;15.44;100.00;100749.88;5028223;28;20378;-61
2023/07/03 04:53:23;;;;;;;21.63;4.97;;;;;;;15.45;100.00;100748.91;5026731;28;20096;-60
2023/07/03 04:55:52;;;;;;;22.55;5.68;;;;;;;15.48;100.00;100751.28;5010762;28;20057;-59
2023/07/03 04:58:21;;;;;;;21.67;5.47;;;;;;;15.49;100.00;100756.47;5007507;28;20485;-60
2023/07/03 05:00:51;;;;;;;26.27;6.20;;;;;;;15.46;100.00;100759.38;5007412;28;20042;-59
2023/07/03 05:03:19;;;;;;;21.38;5.30;;;;;;;15.53;100.00;100751.75;5004578;28;20054;-62
2023/07/03 05:05:47;;;;;;;27.95;6.18;;;;;;;15.54;100.00;100766.66;5010012;28;20401;-61
2023/07/03 05:08:16;;;;;;;21.27;4.93;;;;;;;15.54;100.00;100764.00;5002113;28;20038;-62
2023/07/03 05:10:44;;;;;;;26.27;5.82;;;;;;;15.60;100.00;100767.91;5004797;28;20085;-62
2023/07/03 05:13:12;;;;;;;26.02;5.68;;;;;;;15.57;100.00;100777.00;4999050;28;20069;-60
2023/07/03 05:15:42;;;;;;;23.92;5.45;;;;;;;15.59;100.00;100777.69;5006517;28;20053;-61
2023/07/03 05:18:14;;;;;;;24.35;5.38;;;;;;;15.53;100.00;100779.06;5007395;28;20046;-61
2023/07/03 05:20:44;;;;;;;31.40;6.00;;;;;;;15.59;100.00;100775.03;5002707;28;20050;-61
2023/07/03 05:23:13;;;;;;;27.45;5.78;;;;;;;15.44;100.00;100771.91;5009729;28;20067;-61
2023/07/03 05:25:42;;;;;;;21.33;5.20;;;;;;;15.54;100.00;100777.25;5003566;28;20038;-60
2023/07/03 05:28:10;;;;;;;25.73;5.65;;;;;;;15.54;100.00;100780.75;5004257;28;20500;-61
2023/07/03 05:30:38;;;;;;;32.20;6.45;;;;;;;15.55;100.00;100786.88;5009585;28;20520;-62
2023/07/03 05:33:06;;;;;;;22.35;5.35;;;;;;;15.59;100.00;100785.63;5006660;28;20148;-61
2023/07/03 05:35:36;;;;;;;22.42;5.90;;;;;;;15.64;100.00;100782.59;5029106;28;20045;-62
2023/07/03 05:38:17;;;;;;;24.02;5.75;;;;;;;15.66;100.00;100786.78;5016414;28;20048;-61
2023/07/03 05:40:46;;;;;;;26.17;5.90;;;;;;;15.72;100.00;100786.25;5021588;28;20046;-61
2023/07/03 05:43:14;;;;;;;22.60;5.53;;;;;;;15.72;100.00;100783.59;5019504;28;20049;-61
2023/07/03 05:45:42;;;;;;;25.50;5.90;;;;;;;15.77;100.00;100783.19;5018447;28;20042;-60
2023/07/03 05:48:11;;;;;;;25.13;5.78;;;;;;;15.76;100.00;100791.28;5013849;28;20058;-61
2023/07/03 05:50:40;;;;;;;28.20;6.00;;;;;;;15.77;100.00;100798.25;5003949;28;20049;-61
2023/07/03 05:53:09;;;;;;;21.88;5.25;;;;;;;15.80;100.00;100800.66;4999330;28;20041;-62
2023/07/03 05:55:37;;;;;;;23.65;5.55;;;;;;;15.87;100.00;100796.53;5004376;28;20655;-62
2023/07/03 05:58:06;;;;;;;24.63;5.60;;;;;;;15.92;100.00;100796.94;5012044;28;20080;-60
2023/07/03 06:00:34;;;;;;;27.15;6.57;;;;;;;16.07;100.00;100796.56;5011771;28;20060;-61
2023/07/03 06:03:02;;;;;;;29.00;5.95;;;;;;;15.99;100.00;100792.78;5011766;28;20537;-61
2023/07/03 06:05:31;;;;;;;27.30;5.65;;;;;;;16.09;100.00;100792.78;5015873;28;20388;-60
2023/07/03 06:08:00;;;;;;;22.55;5.43;;;;;;;16.21;100.00;100783.72;5031815;28;20443;-60
2023/07/03 06:10:28;;;;;;;24.70;6.40;;;;;;;16.40;100.00;100782.03;5020914;28;20121;-61
2023/07/03 06:12:57;;;;;;;22.77;5.78;;;;;;;16.50;100.00;100790.03;5017296;28;20798;-60
2023/07/03 06:15:25;;;;;;;19.30;5.00;;;;;;;16.54;100.00;100791.44;5016286;28;20038;-59
2023/07/03 06:17:55;;;;;;;29.15;6.10;;;;;;;16.64;100.00;100797.56;5020655;28;20133;-59
2023/07/03 06:20:24;;;;;;;22.23;5.63;;;;;;;16.70;100.00;100794.34;5000344;28;20531;-59
2023/07/03 06:22:52;;;;;;;22.33;5.60;;;;;;;16.77;100.00;100799.09;4991213;28;20063;-59
2023/07/03 06:25:22;;;;;;;22.38;6.10;;;;;;;16.84;100.00;100792.25;4998653;28;20050;-58
2023/07/03 06:27:50;;;;;;;23.25;5.63;;;;;;;16.85;100.00;100797.41;5001746;28;20046;-62
2023/07/03 06:30:19;;;;;;;20.15;5.43;;;;;;;16.81;100.00;100795.16;4996230;28;20082;-60
2023/07/03 06:32:47;;;;;;;21.42;5.68;;;;;;;16.92;100.00;100797.72;4998026;28;20422;-62
2023/07/03 06:35:17;;;;;;;20.88;5.40;;;;;;;16.73;100.00;100801.19;4995607;28;20046;-61
2023/07/03 06:37:48;;;;;;;21.52;5.20;;;;;;;16.75;100.00;100801.88;5001200;28;20444;-60
2023/07/03 06:40:18;;;;;;;24.63;5.68;;;;;;;16.72;100.00;100803.00;5000613;28;20053;-60
2023/07/03 06:42:48;;;;;;;24.13;5.47;;;;;;;16.94;100.00;100813.50;5000228;28;20050;-60
2023/07/03 06:45:16;;;;;;;18.05;5.70;;;;;;;16.99;100.00;100805.94;5002609;28;20472;-60
2023/07/03 06:47:44;;;;;;;22.77;5.72;;;;;;;16.92;100.00;100804.81;5004151;28;20077;-61
2023/07/03 06:50:13;;;;;;;27.00;5.18;;;;;;;16.97;100.00;100811.38;5001423;28;20045;-60
2023/07/03 06:52:42;;;;;;;20.33;5.30;;;;;;;17.06;100.00;100818.50;4999555;28;21316;-60
2023/07/03 06:55:11;;;;;;;23.17;5.35;;;;;;;17.09;100.00;100816.56;5000262;28;20473;-60
2023/07/03 06:57:39;;;;;;;19.65;5.70;;;;;;;17.27;100.00;100819.31;5000492;28;20081;-61
2023/07/03 07:00:13;;;;;;;19.35;5.22;;;;;;;17.35;100.00;100817.59;4998236;28;20107;-61
2023/07/03 07:02:41;;;;;;;24.15;4.75;;;;;;;17.48;100.00;100819.94;5000280;28;20052;-60
2023/07/03 07:05:10;;;;;;;19.88;4.63;;;;;;;17.51;100.00;100809.00;4999242;28;20046;-60
2023/07/03 07:07:38;;;;;;;19.08;5.07;;;;;;;17.64;100.00;100811.34;5000513;28;20049;-61
2023/07/03 07:10:07;;;;;;;24.88;5.72;;;;;;;17.66;100.00;100813.84;5002493;28;20046;-60
2023/07/03 07:12:36;;;;;;;19.58;5.65;;;;;;;17.64;100.00;100807.81;4995392;28;20065;-60
2023/07/03 07:15:05;;;;;;;22.98;5.80;;;;;;;17.73;100.00;100813.09;4998328;28;20054;-59
2023/07/03 07:17:34;;;;;;;18.92;4.65;;;;;;;17.66;100.00;100820.00;4995017;28;20065;-59
2023/07/03 07:20:09;;;;;;;22.75;5.10;;;;;;;17.82;100.00;100823.81;5002206;28;20050;-58
2023/07/03 07:22:37;;;;;;;21.85;4.78;;;;;;;17.74;100.00;100821.94;5009397;28;20053;-59
2023/07/03 07:25:06;;;;;;;18.50;4.88;;;;;;;17.77;100.00;100816.31;5009439;28;20074;-59
2023/07/03 07:27:35;;;;;;;16.73;4.05;;;;;;;17.66;100.00;100825.31;5011788;28;20046;-59
2023/07/03 07:30:04;;;;;;;20.88;4.78;;;;;;;17.78;100.00;100825.97;5004400;28;20428;-59
2023/07/03 07:32:33;;;;;;;18.35;4.85;;;;;;;17.77;100.00;100826.13;5017950;28;20042;-59
2023/07/03 07:35:02;;;;;;;15.93;4.38;;;;;;;17.82;100.00;100830.00;5025208;28;20056;-58
2023/07/03 07:37:30;;;;;;;18.55;4.85;;;;;;;17.73;100.00;100829.06;5007918;28;20042;-58
2023/07/03 07:39:58;;;;;;;17.60;4.32;;;;;;;17.88;100.00;100828.56;5018895;28;20058;-59
2023/07/03 07:42:29;;;;;;;19.13;4.65;;;;;;;18.01;100.00;100836.22;5011278;28;20046;-60
2023/07/03 07:44:57;;;;;;;18.33;4.63;;;;;;;18.01;100.00;100837.09;5008545;28;20477;-59
2023/07/03 07:47:25;;;;;;;22.77;5.35;;;;;;;18.12;100.00;100837.84;5016250;28;20033;-59
2023/07/03 07:49:54;;;;;;;14.13;4.38;;;;;;;18.08;100.00;100838.16;5015956;28;20378;-60
2023/07/03 07:52:23;;;;;;;18.35;5.05;;;;;;;18.31;100.00;100831.56;5016214;28;20041;-60
2023/07/03 07:54:54;;;;;;;14.77;4.43;;;;;;;18.31;100.00;100829.75;5025781;28;20133;-58
2023/07/03 07:57:23;;;;;;;18.98;4.97;;;;;;;18.33;100.00;100838.41;5020307;28;20443;-61
2023/07/03 07:59:51;;;;;;;15.98;4.97;;;;;;;18.29;100.00;100834.38;5017109;28;20056;-61
2023/07/03 08:02:19;;;;;;;22.05;5.03;;;;;;;18.47;100.00;100841.53;5011305;28;20401;-61
2023/07/03 08:04:48;;;;;;;24.20;5.70;;;;;;;18.63;100.00;100839.03;5023534;28;20041;-61
2023/07/03 08:07:18;;;;;;;21.55;5.20;;;;;;;18.72;100.00;100835.44;5016577;28;20046;-59
2023/07/03 08:09:46;;;;;;;17.42;4.80;;;;;;;18.74;100.00;100841.44;5009781;28;20041;-59
2023/07/03 08:12:14;;;;;;;17.55;4.25;;;;;;;18.95;100.00;100845.66;5012032;28;20468;-59
2023/07/03 08:14:42;;;;;;;18.23;4.45;;;;;;;19.02;100.00;100844.03;5021021;28;20045;-59
2023/07/03 08:17:10;;;;;;;18.52;4.90;;;;;;;19.08;100.00;100851.41;5014491;28;20037;-60
2023/07/03 08:19:39;;;;;;;15.68;4.53;;;;;;;19.34;100.00;100844.41;5015014;28;20049;-61
2023/07/03 08:22:08;;;;;;;17.30;4.72;;;;;;;19.44;100.00;100853.13;5029153;28;20049;-60
2023/07/03 08:24:37;;;;;;;17.10;3.92;;;;;;;19.63;100.00;100852.06;5028779;28;20073;-62
2023/07/03 08:27:06;;;;;;;13.45;3.72;;;;;;;19.84;100.00;100850.88;5028099;28;20042;-59
2023/07/03 08:29:34;;;;;;;18.42;3.78;;;;;;;19.86;100.00;100851.53;5028263;28;20408;-58
2023/07/03 08:32:02;;;;;;;13.23;3.83;;;;;;;19.69;100.00;100854.09;5028285;28;20570;-60
2023/07/03 08:34:31;;;;;;;15.25;3.80;;;;;;;19.91;100.00;100850.06;5028585;28;20400;-62
2023/07/03 08:36:59;;;;;;;17.23;3.58;;;;;;;20.05;100.00;100856.59;5029080;28;20096;-59
2023/07/03 08:39:30;;;;;;;15.98;4.40;;;;;;;20.07;100.00;100849.28;5026536;28;20164;-58
2023/07/03 08:42:07;;;;;;;16.00;4.20;;;;;;;20.30;98.87;100859.38;5027993;28;20052;-62
2023/07/03 08:44:36;;;;;;;12.82;3.40;;;;;;;20.38;97.07;100846.03;5029101;28;20059;-60
2023/07/03 08:47:09;;;;;;;18.35;4.38;;;;;;;20.37;93.39;100839.00;5028250;28;20501;-60
2023/07/03 08:49:40;;;;;;;14.43;3.80;;;;;;;20.47;94.29;100838.03;5028889;28;20045;-60
2023/07/03 08:52:09;;;;;;;13.32;3.70;;;;;;;20.52;91.89;100844.53;5028566;28;20049;-61
2023/07/03 08:54:41;;;;;;;15.82;3.63;;;;;;;20.66;92.25;100843.03;5028430;28;20052;-60
2023/07/03 08:57:11;;;;;;;14.18;2.97;;;;;;;21.02;89.93;100836.56;5028348;28;20045;-60
2023/07/03 08:59:40;;;;;;;17.13;3.75;;;;;;;21.35;88.52;100845.38;5026972;28;20057;-60
2023/07/03 09:02:18;;;;;;;13.07;3.17;;;;;;;21.52;84.92;100851.50;5027398;28;20093;-60
2023/07/03 09:05:01;;;;;;;14.38;3.50;;;;;;;21.48;86.40;100844.00;5028734;28;20604;-60
2023/07/03 09:07:42;;;;;;;13.05;3.17;;;;;;;21.37;79.42;100846.00;5027772;28;20722;-58
2023/07/03 09:10:16;;;;;;;11.80;3.33;;;;;;;21.43;82.73;100852.50;5027679;28;20059;-59
2023/07/03 09:12:52;;;;;;;14.93;3.05;;;;;;;21.39;83.04;100852.03;5027893;28;20366;-58
2023/07/03 09:15:28;;;;;;;12.38;3.55;;;;;;;21.52;85.35;100845.31;5027288;28;20123;-58
2023/07/03 09:17:59;;;;;;;16.92;3.50;;;;;;;21.48;83.78;100846.66;5026776;28;20055;-60
2023/07/03 09:20:29;;;;;;;14.48;3.17;;;;;;;21.42;82.80;100842.84;5028003;28;20049;-61
2023/07/03 09:23:05;;;;;;;17.20;3.60;;;;;;;21.65;85.31;100839.44;5021779;28;20046;-58
2023/07/03 09:25:39;;;;;;;16.13;3.28;;;;;;;21.77;80.33;100840.72;5008272;28;20045;-58
2023/07/03 09:28:10;;;;;;;13.82;3.22;;;;;;;22.08;75.75;100832.72;5017784;28;20050;-59
2023/07/03 09:30:39;;;;;;;10.38;3.10;;;;;;;22.29;75.84;100844.63;5021539;28;20057;-59
2023/07/03 09:33:10;;;;;;;13.40;3.33;;;;;;;22.24;75.46;100841.69;5013931;28;20073;-59
2023/07/03 09:35:41;;;;;;;13.25;3.28;;;;;;;21.77;76.53;100849.63;5013773;28;20418;-60
2023/07/03 09:38:15;;;;;;;14.70;3.47;;;;;;;21.77;78.30;100856.78;5009757;28;20045;-60
2023/07/03 09:40:46;;;;;;;12.32;3.08;;;;;;;21.56;78.37;100857.38;5011588;28;20521;-61
2023/07/03 09:43:19;;;;;;;17.77;3.10;;;;;;;21.29;77.74;100854.06;5014231;28;20041;-58
2023/07/03 09:45:49;;;;;;;13.50;3.50;;;;;;;21.52;77.89;100859.53;5011524;28;20041;-60
2023/07/03 09:48:22;;;;;;;13.15;3.33;;;;;;;21.32;79.59;100858.22;5009586;28;20049;-60
2023/07/03 09:50:51;;;;;;;13.73;3.80;;;;;;;21.30;79.02;100857.56;5010089;28;20116;-60
2023/07/03 09:53:39;;;;;;;13.85;3.47;;;;;;;21.63;79.47;100855.66;5010489;28;20056;-61
2023/07/03 09:56:13;;;;;;;12.43;3.50;;;;;;;22.04;79.97;100855.50;5009665;28;20057;-59
2023/07/03 09:58:48;;;;;;;12.68;3.13;;;;;;;22.27;78.39;100857.38;5010661;28;20060;-61
2023/07/03 10:01:20;;;;;;;15.95;3.70;;;;;;;22.47;76.73;100856.94;5009897;28;20069;-61
2023/07/03 10:04:02;;;;;;;14.18;3.50;;;;;;;22.76;77.56;100859.75;5010499;28;20950;-59
2023/07/03 10:06:59;;;;;;;14.88;3.45;;;;;;;22.73;72.55;100857.44;5011222;28;20104;-60
2023/07/03 10:09:31;;;;;;;12.63;3.22;;;;;;;22.59;69.47;100861.75;4990511;28;20054;-60
2023/07/03 10:12:09;;;;;;;12.48;2.75;;;;;;;22.26;72.35;100861.06;4991877;28;20068;-60
2023/07/03 10:14:48;;;;;;;14.63;3.22;;;;;;;22.05;69.89;100864.38;4991354;28;20046;-61
2023/07/03 10:17:19;;;;;;;10.32;2.65;;;;;;;21.71;69.95;100871.69;5001977;28;20045;-60
2023/07/03 10:19:54;;;;;;;11.45;2.70;;;;;;;21.49;71.22;100870.56;5025829;28;20041;-59
2023/07/03 10:22:25;;;;;;;10.65;2.70;;;;;;;21.37;71.07;100888.81;5028792;28;20045;-60
2023/07/03 10:25:00;;;;;;;13.70;2.75;;;;;;;21.24;70.98;100883.13;5012868;28;20065;-59
2023/07/03 10:27:29;;;;;;;10.48;2.58;;;;;;;21.28;72.33;100895.16;5009554;28;20058;-60
2023/07/03 10:30:00;;;;;;;10.88;2.35;;;;;;;21.28;71.13;100900.50;5019595;28;20436;-59
2023/07/03 10:32:32;;;;;;;11.10;2.97;;;;;;;21.11;68.66;100889.84;5022177;28;20080;-59
2023/07/03 10:35:07;;;;;;;9.20;2.20;;;;;;;20.89;68.44;100890.53;5016913;28;20164;-58
2023/07/03 10:37:44;;;;;;;12.90;2.85;;;;;;;21.03;70.63;100875.66;5010680;28;20080;-60
2023/07/03 10:40:18;;;;;;;10.25;2.63;;;;;;;21.03;71.88;100876.47;5010389;28;20136;-59
2023/07/03 10:42:51;;;;;;;10.40;2.30;;;;;;;21.29;68.92;100878.13;5009369;28;20060;-59
2023/07/03 10:45:22;;;;;;;10.63;2.28;;;;;;;21.82;68.68;100881.19;5008054;28;20053;-59
2023/07/03 10:47:56;;;;;;;12.02;2.28;;;;;;;21.75;66.39;100882.91;5010286;28;20058;-59
2023/07/03 10:50:31;;;;;;;14.00;3.10;;;;;;;21.69;67.11;100886.25;5014689;28;20041;-60
2023/07/03 10:53:09;;;;;;;11.55;2.50;;;;;;;21.70;64.15;100871.88;5021134;28;20401;-58
2023/07/03 10:55:44;;;;;;;8.27;2.42;;;;;;;21.61;63.63;100881.78;5030364;28;20077;-59
2023/07/03 10:58:21;;;;;;;9.43;2.28;;;;;;;21.50;63.94;100871.38;5026532;28;20156;-59
2023/07/03 11:00:57;;;;;;;11.65;2.50;;;;;;;21.52;63.44;100874.75;5023423;28;21034;-59
2023/07/03 11:03:41;;;;;;;9.68;2.35;;;;;;;21.56;64.43;100874.25;5013124;28;20053;-60
2023/07/03 11:06:19;;;;;;;7.07;2.25;;;;;;;21.51;64.44;100875.75;5015294;28;20069;-59
2023/07/03 11:08:55;;;;;;;10.25;2.17;;;;;;;21.54;64.07;100868.25;5001455;28;20658;-60
2023/07/03 11:11:38;;;;;;;9.10;2.25;;;;;;;21.83;63.25;100868.63;5028659;28;20083;-58
2023/07/03 11:14:17;;;;;;;10.38;2.53;;;;;;;21.86;61.42;100877.16;5028272;28;20049;-59
2023/07/03 11:17:00;;;;;;;11.60;2.58;;;;;;;21.86;61.56;100868.31;5025684;28;20163;-58
2023/07/03 11:19:36;;;;;;;8.52;2.45;;;;;;;21.62;63.78;100859.34;5018593;28;20087;-59
2023/07/03 11:22:15;;;;;;;10.95;2.78;;;;;;;21.52;63.32;100870.22;5023630;28;20038;-60
2023/07/03 11:25:09;;;;;;;9.80;2.22;;;;;;;21.53;64.00;100869.25;5022577;28;20042;-60
2023/07/03 11:27:44;;;;;;;8.13;2.10;;;;;;;21.53;63.04;100869.25;5021361;28;20710;-59